createdAt,value
2024-03-02T00:00:13.969Z,5.30
2024-03-02T00:01:13.938Z,5.20
2024-03-02T00:02:13.910Z,6.10
2024-03-02T00:03:13.889Z,5.00
2024-03-02T00:04:13.873Z,4.50
2024-03-02T00:05:13.849Z,5.30
2024-03-02T00:06:13.846Z,4.50
2024-03-02T00:07:13.814Z,4.10
2024-03-02T00:08:13.796Z,4.50
2024-03-02T00:09:13.855Z,4.20
2024-03-02T00:10:13.842Z,5.10
2024-03-02T00:11:13.816Z,5.90
2024-03-02T00:12:13.858Z,5.60
2024-03-02T00:13:13.756Z,6.10
2024-03-02T00:14:13.740Z,6.30
2024-03-02T00:15:13.750Z,7.80
2024-03-02T00:16:13.738Z,5.80
2024-03-02T00:17:13.716Z,6.60
2024-03-02T00:18:13.823Z,6.30
2024-03-02T00:19:13.721Z,5.70
2024-03-02T00:20:13.676Z,5.70
2024-03-02T00:21:13.747Z,5.90
2024-03-02T00:22:13.652Z,6.80
2024-03-02T00:23:13.647Z,6.20
2024-03-02T00:24:13.660Z,4.50
2024-03-02T00:25:13.618Z,5.60
2024-03-02T00:26:13.633Z,5.20
2024-03-02T00:27:13.651Z,4.80
2024-03-02T00:28:13.631Z,4.70
2024-03-02T00:29:13.609Z,4.40
2024-03-02T00:30:13.584Z,4.60
2024-03-02T00:31:13.584Z,5.70
2024-03-02T00:32:13.561Z,4.60
2024-03-02T00:33:13.596Z,4.90
2024-03-02T00:34:13.567Z,4.90
2024-03-02T00:35:13.517Z,5.50
2024-03-02T00:36:13.547Z,4.50
2024-03-02T00:37:13.530Z,4.90
2024-03-02T00:38:13.485Z,5.10
2024-03-02T00:39:13.491Z,6.10
2024-03-02T00:40:13.464Z,6.00
2024-03-02T00:41:13.487Z,5.10
2024-03-02T00:42:13.482Z,5.00
2024-03-02T00:43:13.428Z,5.10
2024-03-02T00:44:13.416Z,4.70
2024-03-02T00:45:13.460Z,4.90
2024-03-02T00:46:13.402Z,5.10
2024-03-02T00:47:13.393Z,5.50
2024-03-02T00:48:13.393Z,11.80
2024-03-02T00:49:13.386Z,4.70
2024-03-02T00:50:20.622Z,5.60
2024-03-02T00:51:13.369Z,4.80
2024-03-02T00:52:13.360Z,5.00
2024-03-02T00:53:13.342Z,7.50
2024-03-02T00:54:13.350Z,6.70
2024-03-02T00:55:13.301Z,6.90
2024-03-02T00:56:13.293Z,4.80
2024-03-02T00:57:13.365Z,5.10
2024-03-02T00:58:13.296Z,5.10
2024-03-02T00:59:13.269Z,6.50
2024-03-02T01:00:13.296Z,4.80
2024-03-02T01:01:13.327Z,6.10
2024-03-02T01:02:13.217Z,7.40
2024-03-02T01:03:13.274Z,6.40
2024-03-02T01:04:13.238Z,5.20
2024-03-02T01:05:13.202Z,5.40
2024-03-02T01:06:13.204Z,6.60
2024-03-02T01:07:13.170Z,5.60
2024-03-02T01:08:13.169Z,6.30
2024-03-02T01:09:13.238Z,6.80
2024-03-02T01:10:13.156Z,4.90
2024-03-02T01:11:13.136Z,5.60
2024-03-02T01:12:13.184Z,5.40
2024-03-02T01:13:13.144Z,6.30
2024-03-02T01:14:13.101Z,6.10
2024-03-02T01:15:13.171Z,5.30
2024-03-02T01:16:13.086Z,4.80
2024-03-02T01:17:13.075Z,5.50
2024-03-02T01:18:13.085Z,4.60
2024-03-02T01:19:13.128Z,4.70
2024-03-02T01:20:13.038Z,5.40
2024-03-02T01:21:13.154Z,6.30
2024-03-02T01:22:13.019Z,5.70
2024-03-02T01:23:13.029Z,5.30
2024-03-02T01:24:13.013Z,5.10
2024-03-02T01:25:12.989Z,5.60
2024-03-02T01:26:13.018Z,5.60
2024-03-02T01:27:13.056Z,4.70
2024-03-02T01:28:12.947Z,5.80
2024-03-02T01:29:13.005Z,5.50
2024-03-02T01:30:12.996Z,5.40
2024-03-02T01:31:12.965Z,4.80
2024-03-02T01:32:12.944Z,6.50
2024-03-02T01:33:13.025Z,4.80
2024-03-02T01:34:12.922Z,6.60
2024-03-02T01:35:12.904Z,5.50
2024-03-02T01:36:12.916Z,4.70
2024-03-02T01:37:12.864Z,8.00
2024-03-02T01:38:12.896Z,4.70
2024-03-02T01:39:12.941Z,6.10
2024-03-02T01:40:12.831Z,5.10
2024-03-02T01:41:12.860Z,6.10
2024-03-02T01:42:12.878Z,4.60
2024-03-02T01:43:12.801Z,5.40
2024-03-02T01:44:12.798Z,5.60
2024-03-02T01:45:12.925Z,5.20
2024-03-02T01:46:12.767Z,5.20
2024-03-02T01:47:12.750Z,5.90
2024-03-02T01:48:12.777Z,5.80
2024-03-02T01:49:12.771Z,4.20
2024-03-02T01:50:12.773Z,5.10
2024-03-02T01:51:12.724Z,4.40
2024-03-02T01:52:12.692Z,5.40
2024-03-02T01:53:12.739Z,5.20
2024-03-02T01:54:12.694Z,5.30
2024-03-02T01:55:12.680Z,4.80
2024-03-02T01:56:12.675Z,6.60
2024-03-02T01:57:12.648Z,6.70
2024-03-02T01:58:12.640Z,4.70
2024-03-02T01:59:12.649Z,5.60
2024-03-02T02:00:12.651Z,6.00
2024-03-02T02:01:12.733Z,6.20
2024-03-02T02:02:12.598Z,6.40
2024-03-02T02:03:12.593Z,6.40
2024-03-02T02:04:12.576Z,7.30
2024-03-02T02:05:12.568Z,5.40
2024-03-02T02:06:12.547Z,5.50
2024-03-02T02:07:12.580Z,5.00
2024-03-02T02:08:12.544Z,6.20
2024-03-02T02:09:12.545Z,6.40
2024-03-02T02:10:12.534Z,6.90
2024-03-02T02:11:12.530Z,5.60
2024-03-02T02:12:12.501Z,6.10
2024-03-02T02:13:12.505Z,5.60
2024-03-02T02:14:12.481Z,6.70
2024-03-02T02:15:12.478Z,5.70
2024-03-02T02:16:12.509Z,5.90
2024-03-02T02:17:12.473Z,5.00
2024-03-02T02:18:12.489Z,6.60
2024-03-02T02:19:12.441Z,7.10
2024-03-02T02:20:12.413Z,5.80
2024-03-02T02:21:12.394Z,6.80
2024-03-02T02:22:12.404Z,5.20
2024-03-02T02:23:12.389Z,6.90
2024-03-02T02:24:12.388Z,5.00
2024-03-02T02:25:12.362Z,5.20
2024-03-02T02:26:12.339Z,5.30
2024-03-02T02:27:12.359Z,5.50
2024-03-02T02:28:12.340Z,6.60
2024-03-02T02:29:12.329Z,5.50
2024-03-02T02:30:12.301Z,6.20
2024-03-02T02:31:12.350Z,6.60
2024-03-02T02:32:12.292Z,6.30
2024-03-02T02:33:12.345Z,5.40
2024-03-02T02:34:12.330Z,5.50
2024-03-02T02:35:12.258Z,6.50
2024-03-02T02:36:12.251Z,5.10
2024-03-02T02:37:12.271Z,6.60
2024-03-02T02:38:12.238Z,7.30
2024-03-02T02:39:12.207Z,6.40
2024-03-02T02:40:12.251Z,7.10
2024-03-02T02:41:12.202Z,6.80
2024-03-02T02:42:12.192Z,5.80
2024-03-02T02:43:12.166Z,6.40
2024-03-02T02:44:12.155Z,6.40
2024-03-02T02:45:12.206Z,5.60
2024-03-02T02:46:12.238Z,7.10
2024-03-02T02:47:12.156Z,7.10
2024-03-02T02:48:12.151Z,6.20
2024-03-02T02:49:12.116Z,6.20
2024-03-02T02:50:12.158Z,6.30
2024-03-02T02:51:12.105Z,7.80
2024-03-02T02:52:12.086Z,6.60
2024-03-02T02:53:12.116Z,6.20
2024-03-02T02:54:12.074Z,7.00
2024-03-02T02:55:12.048Z,6.20
2024-03-02T02:56:12.036Z,7.30
2024-03-02T02:57:12.096Z,5.90
2024-03-02T02:58:12.020Z,6.10
2024-03-02T02:59:12.011Z,6.20
2024-03-02T03:00:12.107Z,7.50
2024-03-02T03:01:12.121Z,7.90
2024-03-02T03:02:11.980Z,7.30
2024-03-02T03:03:12.009Z,6.30
2024-03-02T03:04:11.950Z,6.20
2024-03-02T03:05:11.965Z,6.50
2024-03-02T03:06:11.938Z,10.20
2024-03-02T03:07:11.946Z,6.80
2024-03-02T03:08:11.952Z,7.00
2024-03-02T03:09:11.910Z,6.60
2024-03-02T03:10:11.942Z,9.10
2024-03-02T03:11:11.897Z,6.30
2024-03-02T03:12:11.865Z,8.30
2024-03-02T03:13:11.872Z,7.80
2024-03-02T03:14:11.895Z,6.90
2024-03-02T03:15:11.879Z,9.20
2024-03-02T03:16:11.863Z,7.30
2024-03-02T03:17:11.819Z,7.40
2024-03-02T03:18:11.899Z,8.30
2024-03-02T03:19:11.804Z,7.60
2024-03-02T03:20:11.917Z,7.00
2024-03-02T03:21:11.784Z,7.50
2024-03-02T03:22:11.762Z,7.40
2024-03-02T03:23:11.757Z,7.90
2024-03-02T03:24:11.756Z,7.50
2024-03-02T03:25:11.790Z,6.70
2024-03-02T03:26:11.736Z,7.60
2024-03-02T03:27:11.713Z,7.80
2024-03-02T03:28:11.701Z,8.00
2024-03-02T03:29:11.701Z,8.20
2024-03-02T03:30:11.692Z,8.60
2024-03-02T03:31:11.688Z,9.50
2024-03-02T03:32:11.689Z,8.00
2024-03-02T03:33:11.671Z,7.80
2024-03-02T03:34:11.638Z,7.50
2024-03-02T03:35:11.703Z,9.30
2024-03-02T03:36:11.641Z,8.80
2024-03-02T03:37:11.646Z,8.90
2024-03-02T03:38:11.596Z,9.50
2024-03-02T03:39:11.589Z,8.50
2024-03-02T03:40:11.892Z,9.20
2024-03-02T03:41:11.569Z,8.70
2024-03-02T03:42:11.595Z,10.80
2024-03-02T03:43:11.660Z,8.20
2024-03-02T03:44:11.546Z,8.70
2024-03-02T03:45:11.539Z,8.90
2024-03-02T03:46:11.530Z,8.50
2024-03-02T03:47:11.500Z,8.60
2024-03-02T03:48:11.565Z,8.30
2024-03-02T03:49:11.481Z,9.00
2024-03-02T03:50:11.478Z,8.80
2024-03-02T03:51:11.459Z,8.40
2024-03-02T03:52:11.449Z,9.20
2024-03-02T03:53:11.452Z,9.30
2024-03-02T03:54:11.448Z,9.90
2024-03-02T03:55:11.451Z,8.60
2024-03-02T03:56:11.435Z,10.90
2024-03-02T03:57:11.388Z,9.70
2024-03-02T03:58:11.386Z,8.90
2024-03-02T03:59:11.369Z,9.00
2024-03-02T04:00:11.676Z,9.40
2024-03-02T04:01:11.404Z,10.00
2024-03-02T04:02:11.337Z,9.20
2024-03-02T04:03:11.323Z,9.30
2024-03-02T04:04:11.325Z,10.70
2024-03-02T04:05:11.326Z,9.70
2024-03-02T04:06:11.333Z,10.00
2024-03-02T04:07:11.295Z,9.40
2024-03-02T04:08:11.282Z,10.10
2024-03-02T04:09:11.271Z,9.20
2024-03-02T04:10:11.303Z,10.40
2024-03-02T04:11:11.258Z,10.40
2024-03-02T04:12:11.304Z,9.10
2024-03-02T04:13:11.234Z,9.20
2024-03-02T04:14:11.226Z,10.00
2024-03-02T04:15:11.248Z,10.20
2024-03-02T04:16:11.197Z,8.90
2024-03-02T04:17:11.202Z,9.40
2024-03-02T04:18:11.243Z,11.00
2024-03-02T04:19:11.177Z,9.50
2024-03-02T04:20:11.160Z,11.60
2024-03-02T04:21:11.141Z,10.10
2024-03-02T04:22:15.939Z,10.50
2024-03-02T04:23:11.161Z,13.00
2024-03-02T04:24:11.115Z,9.70
2024-03-02T04:25:11.107Z,12.90
2024-03-02T04:26:11.100Z,9.80
2024-03-02T04:27:11.078Z,11.70
2024-03-02T04:28:11.106Z,9.20
2024-03-02T04:29:11.076Z,12.60
2024-03-02T04:30:11.060Z,9.30
2024-03-02T04:31:11.053Z,12.00
2024-03-02T04:32:11.117Z,10.20
2024-03-02T04:33:11.164Z,10.40
2024-03-02T04:34:11.059Z,9.80
2024-03-02T04:35:11.026Z,10.70
2024-03-02T04:36:10.989Z,12.90
2024-03-02T04:37:11.072Z,16.90
2024-03-02T04:38:10.969Z,15.90
2024-03-02T04:39:11.028Z,14.00
2024-03-02T04:40:11.001Z,12.90
2024-03-02T04:41:10.929Z,16.10
2024-03-02T04:42:10.965Z,14.20
2024-03-02T04:43:10.917Z,12.80
2024-03-02T04:44:10.913Z,14.00
2024-03-02T04:45:10.904Z,12.80
2024-03-02T04:46:10.973Z,9.60
2024-03-02T04:47:10.888Z,12.10
2024-03-02T04:48:10.868Z,11.10
2024-03-02T04:49:10.948Z,10.40
2024-03-02T04:50:10.849Z,10.30
2024-03-02T04:51:10.887Z,11.00
2024-03-02T04:52:10.841Z,11.60
2024-03-02T04:53:10.816Z,11.90
2024-03-02T04:54:10.806Z,11.60
2024-03-02T04:55:10.817Z,10.60
2024-03-02T04:56:10.792Z,14.70
2024-03-02T04:57:10.819Z,10.90
2024-03-02T04:58:10.756Z,14.30
2024-03-02T04:59:10.757Z,15.00
2024-03-02T05:00:10.759Z,12.30
2024-03-02T05:01:10.863Z,12.70
2024-03-02T05:02:10.722Z,10.70
2024-03-02T05:03:10.725Z,11.30
2024-03-02T05:04:10.694Z,11.30
2024-03-02T05:05:10.696Z,9.50
2024-03-02T05:06:10.687Z,8.80
2024-03-02T05:07:10.718Z,11.20
2024-03-02T05:08:10.674Z,9.60
2024-03-02T05:09:10.665Z,10.90
2024-03-02T05:10:10.635Z,11.00
2024-03-02T05:11:10.655Z,10.40
2024-03-02T05:12:10.607Z,9.10
2024-03-02T05:13:10.673Z,10.00
2024-03-02T05:14:10.614Z,9.60
2024-03-02T05:15:10.605Z,9.50
2024-03-02T05:16:10.570Z,10.00
2024-03-02T05:17:10.590Z,10.10
2024-03-02T05:18:10.639Z,11.40
2024-03-02T05:19:10.582Z,7.80
2024-03-02T05:20:10.556Z,8.50
2024-03-02T05:21:10.520Z,8.30
2024-03-02T05:22:10.522Z,8.20
2024-03-02T05:23:10.504Z,8.50
2024-03-02T05:24:10.492Z,9.40
2024-03-02T05:25:10.480Z,9.30
2024-03-02T05:26:10.506Z,10.00
2024-03-02T05:27:10.475Z,8.20
2024-03-02T05:28:10.508Z,8.10
2024-03-02T05:29:10.462Z,8.90
2024-03-02T05:30:10.455Z,10.30
2024-03-02T05:31:10.428Z,9.60
2024-03-02T05:32:10.408Z,9.60
2024-03-02T05:33:10.457Z,9.70
2024-03-02T05:34:10.421Z,8.90
2024-03-02T05:35:10.392Z,8.00
2024-03-02T05:36:10.379Z,8.20
2024-03-02T05:37:10.375Z,7.40
2024-03-02T05:38:10.348Z,7.50
2024-03-02T05:39:10.412Z,8.40
2024-03-02T05:40:10.317Z,6.90
2024-03-02T05:41:10.315Z,10.90
2024-03-02T05:42:10.319Z,7.50
2024-03-02T05:43:10.337Z,8.40
2024-03-02T05:44:10.295Z,7.60
2024-03-02T05:45:10.287Z,7.50
2024-03-02T05:46:10.256Z,7.70
2024-03-02T05:47:10.275Z,9.80
2024-03-02T05:48:10.354Z,7.70
2024-03-02T05:49:10.292Z,8.80
2024-03-02T05:50:10.226Z,8.80
2024-03-02T05:51:10.214Z,7.70
2024-03-02T05:52:10.202Z,7.90
2024-03-02T05:53:10.187Z,7.40
2024-03-02T05:54:10.214Z,6.20
2024-03-02T05:55:10.165Z,6.90
2024-03-02T05:56:10.152Z,7.40
2024-03-02T05:57:10.153Z,6.50
2024-03-02T05:58:10.133Z,6.60
2024-03-02T05:59:10.142Z,8.00
2024-03-02T06:00:10.132Z,8.20
2024-03-02T06:01:10.200Z,8.50
2024-03-02T06:02:10.099Z,7.40
2024-03-02T06:03:10.102Z,7.20
2024-03-02T06:04:10.074Z,6.90
2024-03-02T06:05:10.150Z,7.60
2024-03-02T06:06:10.054Z,9.60
2024-03-02T06:07:10.063Z,7.40
2024-03-02T06:08:10.046Z,7.50
2024-03-02T06:09:10.026Z,6.40
2024-03-02T06:10:13.774Z,7.40
2024-03-02T06:11:10.091Z,7.10
2024-03-02T06:12:10.015Z,8.00
2024-03-02T06:13:09.983Z,8.60
2024-03-02T06:14:10.032Z,8.10
2024-03-02T06:15:09.983Z,8.60
2024-03-02T06:16:10.011Z,8.10
2024-03-02T06:17:09.989Z,9.10
2024-03-02T06:18:09.988Z,10.10
2024-03-02T06:19:09.918Z,9.20
2024-03-02T06:20:10.277Z,8.00
2024-03-02T06:21:09.892Z,10.00
2024-03-02T06:22:09.926Z,8.30
2024-03-02T06:23:09.990Z,10.80
2024-03-02T06:24:09.858Z,9.10
2024-03-02T06:25:09.932Z,8.30
2024-03-02T06:26:09.868Z,9.00
2024-03-02T06:27:09.849Z,11.30
2024-03-02T06:28:09.839Z,8.20
2024-03-02T06:29:09.819Z,8.70
2024-03-02T06:30:09.841Z,9.10
2024-03-02T06:31:09.843Z,10.10
2024-03-02T06:32:09.794Z,8.90
2024-03-02T06:33:09.854Z,9.60
2024-03-02T06:34:09.925Z,10.40
2024-03-02T06:35:09.760Z,9.20
2024-03-02T06:36:09.733Z,9.50
2024-03-02T06:37:09.741Z,8.50
2024-03-02T06:38:09.737Z,11.50
2024-03-02T06:39:09.737Z,11.10
2024-03-02T06:40:09.696Z,10.20
2024-03-02T06:41:09.695Z,9.80
2024-03-02T06:42:09.677Z,10.60
2024-03-02T06:43:09.672Z,11.30
2024-03-02T06:44:09.666Z,15.50
2024-03-02T06:45:09.668Z,11.20
2024-03-02T06:46:09.634Z,10.10
2024-03-02T06:47:09.636Z,16.60
2024-03-02T06:48:09.653Z,14.80
2024-03-02T06:49:09.622Z,13.30
2024-03-02T06:50:09.606Z,10.70
2024-03-02T06:51:09.670Z,13.70
2024-03-02T06:52:09.572Z,12.80
2024-03-02T06:53:09.570Z,10.10
2024-03-02T06:54:09.590Z,9.30
2024-03-02T06:55:09.554Z,11.10
2024-03-02T06:56:09.558Z,10.20
2024-03-02T06:57:09.525Z,10.10
2024-03-02T06:58:09.542Z,10.80
2024-03-02T06:59:09.510Z,10.00
2024-03-02T07:00:09.503Z,11.40
2024-03-02T07:01:09.516Z,10.30
2024-03-02T07:02:09.563Z,9.80
2024-03-02T07:03:09.466Z,8.50
2024-03-02T07:04:09.484Z,9.90
2024-03-02T07:05:09.449Z,8.60
2024-03-02T07:06:09.431Z,10.90
2024-03-02T07:07:09.452Z,9.40
2024-03-02T07:08:09.463Z,9.80
2024-03-02T07:09:09.420Z,10.10
2024-03-02T07:10:09.398Z,9.40
2024-03-02T07:11:09.406Z,10.80
2024-03-02T07:12:09.355Z,9.70
2024-03-02T07:13:09.407Z,9.40
2024-03-02T07:14:09.363Z,9.10
2024-03-02T07:15:09.345Z,10.50
2024-03-02T07:16:09.361Z,9.20
2024-03-02T07:17:09.308Z,9.30
2024-03-02T07:18:09.304Z,8.70
2024-03-02T07:19:09.449Z,9.10
2024-03-02T07:20:09.339Z,10.80
2024-03-02T07:21:09.269Z,10.70
2024-03-02T07:22:09.279Z,8.60
2024-03-02T07:23:09.261Z,9.20
2024-03-02T07:24:09.228Z,9.30
2024-03-02T07:25:09.226Z,9.20
2024-03-02T07:27:09.197Z,9.40
2024-03-02T07:28:09.193Z,11.50
2024-03-02T07:29:09.196Z,8.60
2024-03-02T07:30:09.177Z,8.90
2024-03-02T07:31:09.235Z,9.00
2024-03-02T07:32:09.184Z,9.70
2024-03-02T07:33:09.178Z,7.90
2024-03-02T07:34:09.188Z,9.40
2024-03-02T07:35:09.155Z,9.10
2024-03-02T07:36:09.159Z,8.40
2024-03-02T07:37:09.116Z,8.90
2024-03-02T07:38:09.084Z,10.00
2024-03-02T07:39:09.080Z,8.10
2024-03-02T07:40:09.069Z,8.30
2024-03-02T07:41:09.074Z,9.50
2024-03-02T07:42:09.081Z,10.60
2024-03-02T07:43:09.038Z,8.10
2024-03-02T07:44:09.024Z,7.70
2024-03-02T07:45:09.004Z,8.70
2024-03-02T07:46:09.011Z,8.70
2024-03-02T07:47:09.033Z,8.80
2024-03-02T07:48:09.024Z,9.50
2024-03-02T07:49:08.977Z,8.90
2024-03-02T07:50:08.979Z,9.00
2024-03-02T07:51:08.958Z,8.70
2024-03-02T07:52:08.942Z,9.20
2024-03-02T07:53:09.001Z,11.20
2024-03-02T07:54:08.912Z,10.00
2024-03-02T07:55:08.908Z,12.30
2024-03-02T07:56:08.905Z,8.70
2024-03-02T07:57:08.885Z,8.20
2024-03-02T07:58:08.920Z,8.20
2024-03-02T07:59:08.912Z,8.20
2024-03-02T08:00:08.861Z,8.50
2024-03-02T08:01:08.886Z,7.80
2024-03-02T08:02:08.851Z,9.30
2024-03-02T08:03:08.833Z,9.80
2024-03-02T08:04:08.817Z,8.80
2024-03-02T08:05:08.837Z,10.70
2024-03-02T08:06:08.836Z,9.10
2024-03-02T08:07:08.842Z,8.30
2024-03-02T08:08:08.804Z,28.10
2024-03-02T08:09:08.756Z,21.60
2024-03-02T08:10:08.834Z,11.70
2024-03-02T08:11:08.785Z,7.90
2024-03-02T08:12:16.264Z,7.10
2024-03-02T08:13:08.723Z,6.80
2024-03-02T08:14:09.297Z,6.10
2024-03-02T08:15:08.710Z,5.20
2024-03-02T08:16:08.783Z,4.30
2024-03-02T08:17:08.670Z,4.50
2024-03-02T08:18:08.699Z,5.70
2024-03-02T08:19:08.710Z,4.90
2024-03-02T08:20:08.646Z,4.90
2024-03-02T08:21:08.638Z,5.00
2024-03-02T08:22:08.728Z,4.00
2024-03-02T08:23:08.611Z,4.80
2024-03-02T08:24:08.594Z,4.40
2024-03-02T08:25:08.641Z,4.20
2024-03-02T08:26:08.583Z,4.20
2024-03-02T08:27:08.591Z,4.70
2024-03-02T08:28:08.630Z,4.60
2024-03-02T08:29:08.554Z,5.70
2024-03-02T08:30:08.553Z,4.40
2024-03-02T08:31:08.574Z,4.20
2024-03-02T08:32:08.514Z,4.70
2024-03-02T08:33:08.578Z,3.60
2024-03-02T08:34:08.556Z,5.20
2024-03-02T08:35:08.484Z,4.90
2024-03-02T08:36:08.462Z,4.30
2024-03-02T08:37:08.488Z,5.50
2024-03-02T08:38:08.447Z,4.90
2024-03-02T08:39:08.447Z,4.90
2024-03-02T08:40:08.556Z,4.00
2024-03-02T08:41:08.420Z,4.20
2024-03-02T08:42:08.405Z,4.30
2024-03-02T08:43:08.421Z,6.10
2024-03-02T08:44:08.391Z,4.20
2024-03-02T08:45:08.379Z,4.00
2024-03-02T08:46:08.412Z,4.60
2024-03-02T08:47:08.359Z,3.90
2024-03-02T08:48:08.362Z,4.20
2024-03-02T08:49:08.380Z,4.50
2024-03-02T08:50:08.337Z,4.10
2024-03-02T08:51:08.321Z,4.00
2024-03-02T08:52:08.372Z,4.20
2024-03-02T08:53:08.279Z,4.60
2024-03-02T08:54:08.287Z,5.20
2024-03-02T08:55:08.353Z,4.90
2024-03-02T08:56:08.282Z,3.80
2024-03-02T08:57:08.278Z,5.30
2024-03-02T08:58:08.295Z,6.30
2024-03-02T08:59:08.218Z,6.60
2024-03-02T09:00:08.217Z,7.30
2024-03-02T09:01:08.355Z,5.00
2024-03-02T09:02:08.241Z,5.00
2024-03-02T09:03:08.170Z,8.20
2024-03-02T09:04:08.219Z,4.20
2024-03-02T09:05:08.158Z,4.80
2024-03-02T09:06:08.142Z,4.50
2024-03-02T09:07:08.224Z,5.80
2024-03-02T09:08:08.153Z,3.40
2024-03-02T09:09:08.157Z,5.00
2024-03-02T09:10:08.149Z,4.60
2024-03-02T09:11:08.080Z,6.20
2024-03-02T09:12:08.158Z,4.30
2024-03-02T09:13:08.120Z,5.10
2024-03-02T09:14:08.068Z,4.50
2024-03-02T09:15:08.047Z,5.40
2024-03-02T09:16:08.115Z,3.70
2024-03-02T09:17:08.017Z,4.30
2024-03-02T09:18:08.174Z,4.20
2024-03-02T09:19:08.076Z,3.80
2024-03-02T09:20:08.003Z,5.10
2024-03-02T09:21:08.002Z,10.20
2024-03-02T09:22:08.016Z,4.30
2024-03-02T09:23:07.960Z,4.00
2024-03-02T09:24:08.218Z,4.20
2024-03-02T09:25:07.976Z,4.60
2024-03-02T09:26:07.930Z,4.00
2024-03-02T09:27:07.912Z,3.90
2024-03-02T09:28:07.943Z,4.90
2024-03-02T09:29:07.915Z,3.60
2024-03-02T09:30:07.920Z,5.10
2024-03-02T09:31:08.043Z,4.70
2024-03-02T09:32:07.874Z,5.20
2024-03-02T09:34:08.050Z,6.60
2024-03-02T09:35:07.852Z,3.20
2024-03-02T09:36:07.845Z,3.70
2024-03-02T09:37:07.823Z,4.10
2024-03-02T09:38:07.823Z,3.60
2024-03-02T09:39:07.811Z,4.00
2024-03-02T09:40:07.813Z,4.10
2024-03-02T09:41:07.820Z,4.30
2024-03-02T09:42:07.789Z,4.10
2024-03-02T09:43:07.791Z,5.30
2024-03-02T09:44:07.746Z,4.20
2024-03-02T09:45:07.727Z,4.00
2024-03-02T09:46:07.802Z,3.70
2024-03-02T09:47:07.706Z,4.40
2024-03-02T09:48:07.734Z,5.00
2024-03-02T09:49:07.683Z,6.00
2024-03-02T09:50:07.680Z,4.10
2024-03-02T09:51:07.660Z,4.90
2024-03-02T09:52:07.701Z,4.20
2024-03-02T09:53:07.664Z,4.30
2024-03-02T09:54:13.454Z,3.20
2024-03-02T09:55:07.721Z,4.40
2024-03-02T09:56:07.615Z,3.50
2024-03-02T09:57:07.602Z,4.10
2024-03-02T09:58:07.679Z,5.40
2024-03-02T09:59:07.592Z,4.10
2024-03-02T10:00:07.590Z,3.70
2024-03-02T10:01:07.740Z,4.20
2024-03-02T10:02:07.544Z,4.10
2024-03-02T10:03:07.531Z,4.70
2024-03-02T10:04:07.565Z,3.00
2024-03-02T10:05:07.564Z,4.70
2024-03-02T10:06:07.510Z,3.70
2024-03-02T10:07:07.496Z,4.10
2024-03-02T10:08:07.500Z,4.00
2024-03-02T10:09:07.470Z,3.60
2024-03-02T10:10:07.521Z,3.80
2024-03-02T10:11:07.462Z,5.30
2024-03-02T10:12:07.459Z,3.20
2024-03-02T10:13:07.444Z,4.20
2024-03-02T10:14:07.421Z,4.20
2024-03-02T10:15:07.440Z,3.90
2024-03-02T10:16:07.453Z,4.40
2024-03-02T10:17:07.386Z,4.50
2024-03-02T10:18:07.396Z,3.50
2024-03-02T10:19:07.445Z,3.90
2024-03-02T10:20:07.394Z,3.00
2024-03-02T10:21:07.383Z,3.40
2024-03-02T10:22:07.496Z,3.50
2024-03-02T10:23:07.345Z,4.70
2024-03-02T10:24:07.362Z,3.50
2024-03-02T10:25:22.011Z,3.10
2024-03-02T10:26:07.416Z,3.70
2024-03-02T10:27:07.338Z,2.90
2024-03-02T10:28:07.372Z,2.60
2024-03-02T10:29:07.287Z,3.70
2024-03-02T10:30:07.343Z,3.30
2024-03-02T10:31:08.238Z,3.30
2024-03-02T10:32:07.256Z,4.80
2024-03-02T10:33:07.411Z,4.20
2024-03-02T10:34:07.270Z,2.70
2024-03-02T10:35:07.302Z,3.30
2024-03-02T10:36:07.233Z,7.00
2024-03-02T10:37:07.376Z,4.00
2024-03-02T10:38:07.226Z,4.40
2024-03-02T10:39:07.190Z,4.40
2024-03-02T10:40:07.234Z,2.80
2024-03-02T10:41:07.150Z,3.30
2024-03-02T10:42:07.147Z,4.40
2024-03-02T10:43:07.322Z,3.50
2024-03-02T10:44:07.141Z,4.30
2024-03-02T10:45:07.104Z,4.00
2024-03-02T10:46:07.149Z,3.70
2024-03-02T10:47:07.169Z,4.80
2024-03-02T10:48:07.144Z,4.30
2024-03-02T10:49:08.719Z,4.20
2024-03-02T10:50:07.072Z,2.60
2024-03-02T10:51:07.049Z,3.70
2024-03-02T10:52:07.121Z,3.00
2024-03-02T10:53:07.181Z,3.50
2024-03-02T10:54:07.029Z,3.00
2024-03-02T10:55:07.129Z,3.10
2024-03-02T10:56:07.042Z,3.10
2024-03-02T10:57:06.976Z,3.20
2024-03-02T10:58:07.037Z,3.00
2024-03-02T10:59:06.960Z,4.30
2024-03-02T11:00:06.960Z,3.40
2024-03-02T11:01:07.042Z,5.00
2024-03-02T11:02:07.050Z,3.80
2024-03-02T11:03:06.940Z,4.10
2024-03-02T11:04:06.958Z,3.50
2024-03-02T11:05:06.993Z,5.30
2024-03-02T11:06:06.893Z,3.40
2024-03-02T11:07:06.965Z,4.50
2024-03-02T11:08:06.894Z,4.20
2024-03-02T11:09:06.866Z,3.30
2024-03-02T11:10:06.912Z,3.80
2024-03-02T11:11:06.898Z,3.90
2024-03-02T11:12:06.846Z,3.30
2024-03-02T11:13:06.832Z,3.20
2024-03-02T11:14:06.808Z,4.00
2024-03-02T11:15:06.803Z,3.90
2024-03-02T11:16:06.875Z,2.90
2024-03-02T11:17:06.780Z,6.30
2024-03-02T11:18:06.829Z,3.50
2024-03-02T11:19:06.872Z,3.10
2024-03-02T11:20:06.762Z,3.20
2024-03-02T11:21:06.771Z,3.20
2024-03-02T11:22:06.781Z,3.80
2024-03-02T11:23:06.742Z,4.30
2024-03-02T11:24:06.704Z,3.10
2024-03-02T11:25:06.722Z,3.40
2024-03-02T11:26:06.695Z,3.90
2024-03-02T11:27:06.686Z,3.30
2024-03-02T11:28:06.877Z,3.50
2024-03-02T11:29:06.709Z,4.20
2024-03-02T11:30:08.363Z,2.90
2024-03-02T11:31:06.664Z,3.80
2024-03-02T11:32:06.654Z,4.10
2024-03-02T11:33:06.627Z,3.60
2024-03-02T11:34:06.703Z,4.40
2024-03-02T11:35:06.627Z,4.70
2024-03-02T11:36:09.013Z,4.30
2024-03-02T11:37:06.589Z,4.10
2024-03-02T11:38:06.569Z,3.30
2024-03-02T11:39:06.631Z,4.20
2024-03-02T11:40:06.602Z,3.40
2024-03-02T11:41:06.539Z,3.70
2024-03-02T11:42:06.517Z,3.10
2024-03-02T11:43:06.569Z,3.50
2024-03-02T11:44:06.519Z,3.00
2024-03-02T11:45:06.505Z,3.10
2024-03-02T11:46:06.559Z,4.50
2024-03-02T11:47:06.477Z,3.90
2024-03-02T11:48:06.525Z,3.50
2024-03-02T11:49:06.500Z,3.20
2024-03-02T11:50:06.450Z,3.60
2024-03-02T11:51:06.443Z,3.90
2024-03-02T11:52:06.510Z,3.50
2024-03-02T11:53:06.416Z,2.60
2024-03-02T11:54:06.400Z,3.70
2024-03-02T11:55:06.456Z,4.00
2024-03-02T11:56:06.375Z,3.10
2024-03-02T11:57:06.374Z,3.00
2024-03-02T11:58:06.516Z,2.80
2024-03-02T11:59:06.350Z,3.80
2024-03-02T12:00:06.366Z,4.20
2024-03-02T12:01:06.532Z,3.50
2024-03-02T12:02:06.687Z,3.10
2024-03-02T12:03:06.376Z,3.40
2024-03-02T12:04:06.319Z,5.80
2024-03-02T12:05:06.295Z,2.80
2024-03-02T12:06:06.291Z,3.70
2024-03-02T12:07:06.352Z,3.80
2024-03-02T12:08:06.318Z,4.60
2024-03-02T12:09:06.282Z,4.30
2024-03-02T12:10:06.315Z,5.10
2024-03-02T12:11:06.311Z,3.00
2024-03-02T12:12:06.224Z,3.20
2024-03-02T12:13:06.405Z,3.90
2024-03-02T12:14:06.248Z,3.30
2024-03-02T12:15:06.230Z,3.90
2024-03-02T12:16:06.318Z,3.30
2024-03-02T12:17:06.178Z,4.70
2024-03-02T12:18:06.195Z,3.50
2024-03-02T12:19:06.223Z,3.30
2024-03-02T12:20:06.161Z,3.90
2024-03-02T12:21:06.133Z,3.90
2024-03-02T12:22:06.208Z,3.50
2024-03-02T12:23:06.227Z,4.50
2024-03-02T12:24:06.114Z,4.00
2024-03-02T12:25:06.223Z,3.60
2024-03-02T12:26:06.187Z,6.10
2024-03-02T12:27:06.082Z,3.70
2024-03-02T12:28:06.199Z,3.50
2024-03-02T12:29:06.074Z,3.00
2024-03-02T12:30:06.061Z,9.00
2024-03-02T12:31:06.081Z,3.80
2024-03-02T12:32:06.072Z,3.40
2024-03-02T12:33:06.041Z,3.60
2024-03-02T12:34:06.171Z,2.00
2024-03-02T12:35:06.061Z,4.10
2024-03-02T12:36:06.079Z,3.00
2024-03-02T12:37:06.105Z,2.30
2024-03-02T12:38:06.073Z,2.40
2024-03-02T12:39:05.950Z,3.60
2024-03-02T12:40:06.046Z,3.90
2024-03-02T12:41:05.933Z,2.60
2024-03-02T12:42:05.959Z,2.30
2024-03-02T12:43:06.077Z,2.00
2024-03-02T12:44:06.065Z,2.30
2024-03-02T12:45:05.904Z,3.30
2024-03-02T12:46:06.018Z,3.00
2024-03-02T12:47:05.925Z,2.80
2024-03-02T12:48:06.136Z,3.00
2024-03-02T12:49:05.975Z,3.30
2024-03-02T12:50:05.866Z,3.60
2024-03-02T12:51:05.937Z,3.50
2024-03-02T12:52:05.917Z,3.40
2024-03-02T12:53:05.808Z,3.70
2024-03-02T12:54:06.085Z,2.60
2024-03-02T12:55:05.912Z,3.60
2024-03-02T12:56:05.800Z,5.10
2024-03-02T12:57:05.771Z,3.00
2024-03-02T12:58:05.792Z,3.10
2024-03-02T12:59:05.764Z,3.90
2024-03-02T13:00:05.759Z,4.20
2024-03-02T13:01:05.839Z,3.80
2024-03-02T13:02:05.714Z,3.60
2024-03-02T13:03:05.724Z,4.70
2024-03-02T13:04:05.752Z,4.10
2024-03-02T13:05:05.759Z,2.90
2024-03-02T13:06:05.824Z,4.60
2024-03-02T13:07:05.791Z,3.80
2024-03-02T13:08:05.650Z,3.60
2024-03-02T13:09:05.647Z,4.20
2024-03-02T13:10:05.680Z,3.30
2024-03-02T13:11:05.683Z,4.00
2024-03-02T13:12:05.622Z,3.10
2024-03-02T13:13:05.691Z,3.60
2024-03-02T13:14:05.594Z,3.80
2024-03-02T13:15:05.586Z,4.20
2024-03-02T13:16:05.724Z,3.20